createdAt,value
2018-06-10T00:00:56.729Z,0.00
2018-06-10T00:01:56.775Z,0.00
2018-06-10T00:02:56.826Z,0.00
2018-06-10T00:03:56.909Z,0.00
2018-06-10T00:04:56.930Z,0.00
2018-06-10T00:05:56.979Z,0.00
2018-06-10T00:06:57.031Z,0.00
2018-06-10T00:07:57.085Z,0.00
2018-06-10T00:08:57.164Z,0.00
2018-06-10T00:09:57.182Z,0.00
2018-06-10T00:10:57.244Z,0.00
2018-06-10T00:11:57.286Z,0.00
2018-06-10T00:12:57.340Z,0.00
2018-06-10T00:13:57.423Z,0.00
2018-06-10T00:14:57.437Z,0.00
2018-06-10T00:15:57.488Z,0.00
2018-06-10T00:16:57.542Z,0.00
2018-06-10T00:17:57.590Z,0.00
2018-06-10T00:18:57.665Z,0.00
2018-06-10T00:19:57.694Z,0.00
2018-06-10T00:20:57.765Z,0.00
2018-06-10T00:21:57.799Z,0.00
2018-06-10T00:22:57.852Z,0.00
2018-06-10T00:23:57.900Z,0.00
2018-06-10T00:24:57.973Z,0.00
2018-06-10T00:25:57.996Z,0.00
2018-06-10T00:26:58.050Z,0.00
2018-06-10T00:27:58.099Z,0.00
2018-06-10T00:28:58.180Z,0.00
2018-06-10T00:29:58.224Z,0.00
2018-06-10T00:30:58.254Z,0.00
2018-06-10T00:31:58.333Z,0.00
2018-06-10T00:32:58.353Z,0.00
2018-06-10T00:33:58.404Z,0.00
2018-06-10T00:34:58.486Z,0.00
2018-06-10T00:35:58.506Z,0.00
2018-06-10T00:36:58.560Z,0.00
2018-06-10T00:37:58.608Z,0.00
2018-06-10T00:38:58.660Z,0.00
2018-06-10T00:39:58.733Z,0.00
2018-06-10T00:40:58.763Z,0.00
2018-06-10T00:41:58.843Z,0.00
2018-06-10T00:42:58.863Z,0.00
2018-06-10T00:43:58.914Z,0.00
2018-06-10T00:45:10.840Z,0.00
2018-06-10T00:45:59.018Z,0.00
2018-06-10T00:46:59.114Z,0.00
2018-06-10T00:47:59.117Z,0.00
2018-06-10T00:48:59.166Z,0.00
2018-06-10T00:49:59.217Z,0.00
2018-06-10T00:50:59.268Z,0.00
2018-06-10T00:51:59.354Z,0.00
2018-06-10T00:52:59.372Z,0.00
2018-06-10T00:53:59.419Z,0.00
2018-06-10T00:54:59.475Z,0.00
2018-06-10T00:55:59.521Z,0.00
2018-06-10T00:56:59.597Z,0.00
2018-06-10T00:57:59.623Z,0.00
2018-06-10T00:58:59.681Z,0.00
2018-06-10T00:59:59.724Z,0.00
2018-06-10T01:00:59.777Z,0.00
2018-06-10T01:01:59.868Z,0.00
2018-06-10T01:02:59.878Z,0.00
2018-06-10T01:03:59.928Z,0.00
2018-06-10T01:04:59.978Z,0.00
2018-06-10T01:06:00.031Z,0.00
2018-06-10T01:07:00.111Z,0.00
2018-06-10T01:08:00.132Z,0.00
2018-06-10T01:09:00.212Z,0.00
2018-06-10T01:10:00.230Z,0.00
2018-06-10T01:11:00.282Z,0.00
2018-06-10T01:12:00.356Z,0.00
2018-06-10T01:13:00.408Z,0.00
2018-06-10T01:14:00.433Z,0.00
2018-06-10T01:15:01.198Z,0.00
2018-06-10T01:16:00.539Z,0.00
2018-06-10T01:17:00.586Z,0.00
2018-06-10T01:18:00.661Z,0.00
2018-06-10T01:19:00.694Z,0.00
2018-06-10T01:20:00.740Z,0.00
2018-06-10T01:21:00.791Z,0.00
2018-06-10T01:22:00.840Z,0.00
2018-06-10T01:23:00.916Z,0.00
2018-06-10T01:24:00.941Z,0.00
2018-06-10T01:25:00.992Z,0.00
2018-06-10T01:26:01.045Z,0.00
2018-06-10T01:27:01.105Z,0.00
2018-06-10T01:28:01.170Z,0.00
2018-06-10T01:29:01.196Z,0.00
2018-06-10T01:30:01.246Z,0.00
2018-06-10T01:31:01.296Z,0.00
2018-06-10T01:32:01.349Z,0.00
2018-06-10T01:33:01.423Z,0.00
2018-06-10T01:34:01.449Z,0.00
2018-06-10T01:35:01.501Z,0.00
2018-06-10T01:36:01.555Z,0.00
2018-06-10T01:37:01.609Z,0.00
2018-06-10T01:38:01.690Z,0.00
2018-06-10T01:39:01.702Z,0.00
2018-06-10T01:40:01.752Z,0.00
2018-06-10T01:41:01.804Z,0.00
2018-06-10T01:42:01.860Z,0.00
2018-06-10T01:43:01.944Z,0.00
2018-06-10T01:44:01.957Z,0.00
2018-06-10T01:45:02.011Z,0.00
2018-06-10T01:46:02.057Z,0.00
2018-06-10T01:47:02.106Z,0.00
2018-06-10T01:48:02.180Z,0.00
2018-06-10T01:49:02.213Z,0.00
2018-06-10T01:50:02.281Z,0.00
2018-06-10T01:51:02.307Z,0.00
2018-06-10T01:52:02.359Z,0.00
2018-06-10T01:53:02.410Z,0.00
2018-06-10T01:54:02.465Z,0.00
2018-06-10T01:55:02.534Z,0.00
2018-06-10T01:56:02.562Z,0.00
2018-06-10T01:57:02.612Z,0.00
2018-06-10T01:58:02.665Z,0.00
2018-06-10T01:59:02.717Z,0.00
2018-06-10T02:00:02.792Z,0.00
2018-06-10T02:01:02.814Z,0.00
2018-06-10T02:02:02.866Z,0.00
2018-06-10T02:03:02.915Z,0.00
2018-06-10T02:04:02.966Z,0.00
2018-06-10T02:05:03.044Z,0.00
2018-06-10T02:06:03.067Z,0.00
2018-06-10T02:07:03.120Z,0.00
2018-06-10T02:08:03.169Z,0.00
2018-06-10T02:09:03.220Z,0.00
2018-06-10T02:10:03.295Z,0.00
2018-06-10T02:11:03.322Z,0.00
2018-06-10T02:12:03.372Z,0.00
2018-06-10T02:13:03.421Z,0.00
2018-06-10T02:14:03.502Z,0.00
2018-06-10T02:15:03.525Z,0.00
2018-06-10T02:16:03.571Z,0.00
2018-06-10T02:17:03.627Z,0.00
2018-06-10T02:18:03.674Z,0.00
2018-06-10T02:19:03.750Z,0.00
2018-06-10T02:20:03.802Z,0.00
2018-06-10T02:21:03.824Z,0.00
2018-06-10T02:22:03.874Z,0.00
2018-06-10T02:23:03.924Z,0.00
2018-06-10T02:24:04.000Z,0.00
2018-06-10T02:25:04.054Z,0.00
2018-06-10T02:26:04.076Z,0.00
2018-06-10T02:27:04.129Z,0.00
2018-06-10T02:28:04.180Z,0.00
2018-06-10T02:29:04.231Z,0.00
2018-06-10T02:30:04.308Z,0.00
2018-06-10T02:31:04.334Z,0.00
2018-06-10T02:32:04.380Z,0.00
2018-06-10T02:33:04.433Z,0.00
2018-06-10T02:34:04.485Z,0.00
2018-06-10T02:35:04.557Z,0.00
2018-06-10T02:36:04.584Z,0.00
2018-06-10T02:37:04.658Z,0.00
2018-06-10T02:38:04.683Z,0.00
2018-06-10T02:39:04.733Z,0.00
2018-06-10T02:40:04.789Z,0.00
2018-06-10T02:41:04.873Z,0.00
2018-06-10T02:42:04.884Z,0.00
2018-06-10T02:43:04.935Z,0.00
2018-06-10T02:44:04.987Z,0.00
2018-06-10T02:45:05.037Z,0.00
2018-06-10T02:46:05.126Z,0.00
2018-06-10T02:47:05.139Z,0.00
2018-06-10T02:48:05.188Z,4.00
2018-06-10T02:49:05.242Z,4.00
2018-06-10T02:50:05.291Z,4.00
2018-06-10T02:51:05.363Z,4.00
2018-06-10T02:52:05.417Z,4.00
2018-06-10T02:53:05.442Z,8.00
2018-06-10T02:54:05.490Z,4.00
2018-06-10T02:55:05.543Z,8.00
2018-06-10T02:56:05.597Z,8.00
2018-06-10T02:57:05.667Z,12.00
2018-06-10T02:58:05.693Z,12.00
2018-06-10T02:59:05.743Z,16.00
2018-06-10T03:00:05.799Z,16.00
2018-06-10T03:01:05.845Z,16.00
2018-06-10T03:02:05.920Z,20.00
2018-06-10T03:03:05.974Z,24.00
2018-06-10T03:04:05.996Z,28.00
2018-06-10T03:05:06.048Z,32.00
2018-06-10T03:06:06.100Z,40.00
2018-06-10T03:07:06.148Z,44.00
2018-06-10T03:08:06.221Z,48.00
2018-06-10T03:09:06.248Z,56.00
2018-06-10T03:10:06.300Z,64.00
2018-06-10T03:11:06.369Z,72.00
2018-06-10T03:12:06.399Z,84.00
2018-06-10T03:13:06.477Z,96.00
2018-06-10T03:14:06.501Z,104.00
2018-06-10T03:15:06.552Z,116.00
2018-06-10T03:16:06.606Z,132.00
2018-06-10T03:17:06.654Z,144.00
2018-06-10T03:18:06.728Z,164.00
2018-06-10T03:19:06.755Z,184.00
2018-06-10T03:20:06.806Z,200.00
2018-06-10T03:21:06.853Z,224.00
2018-06-10T03:22:06.904Z,248.00
2018-06-10T03:23:06.980Z,272.00
2018-06-10T03:24:07.038Z,304.00
2018-06-10T03:25:07.063Z,328.00
2018-06-10T03:26:07.105Z,360.00
2018-06-10T03:27:07.156Z,392.00
2018-06-10T03:28:07.208Z,424.00
2018-06-10T03:29:07.301Z,460.00
2018-06-10T03:30:07.308Z,492.00
2018-06-10T03:31:07.361Z,528.00
2018-06-10T03:32:07.407Z,568.00
2018-06-10T03:33:07.457Z,612.00
2018-06-10T03:34:07.531Z,648.00
2018-06-10T03:35:07.559Z,688.00
2018-06-10T03:36:07.608Z,728.00
2018-06-10T03:37:07.659Z,768.00
2018-06-10T03:38:07.710Z,808.00
2018-06-10T03:39:07.783Z,844.00
2018-06-10T03:40:07.837Z,884.00
2018-06-10T03:41:07.860Z,920.00
2018-06-10T03:42:07.910Z,956.00
2018-06-10T03:43:07.964Z,1000.00
2018-06-10T03:44:08.014Z,1036.00
2018-06-10T03:45:08.087Z,1072.00
2018-06-10T03:46:08.124Z,1100.00
2018-06-10T03:47:08.166Z,1132.00
2018-06-10T03:48:08.212Z,1172.00
2018-06-10T03:49:08.261Z,1216.00
2018-06-10T03:50:08.337Z,1264.00
2018-06-10T03:51:08.389Z,1312.00
2018-06-10T03:52:08.414Z,1356.00
2018-06-10T03:53:08.465Z,1400.00
2018-06-10T03:54:08.516Z,1448.00
2018-06-10T03:55:08.564Z,1492.00
2018-06-10T03:56:08.681Z,1540.00
2018-06-10T03:57:08.666Z,1584.00
2018-06-10T03:58:08.716Z,1632.00
2018-06-10T03:59:08.766Z,1676.00
2018-06-10T04:00:08.818Z,1716.00
2018-06-10T04:01:08.887Z,1764.00
2018-06-10T04:02:08.915Z,1816.00
2018-06-10T04:03:08.968Z,1860.00
2018-06-10T04:04:09.020Z,1908.00
2018-06-10T04:05:09.071Z,1952.00
2018-06-10T04:06:09.140Z,2004.00
2018-06-10T04:07:09.168Z,2060.00
2018-06-10T04:08:09.221Z,2112.00
2018-06-10T04:09:09.272Z,2168.00
2018-06-10T04:10:09.318Z,2220.00
2018-06-10T04:11:09.391Z,2284.00
2018-06-10T04:12:09.419Z,2328.00
2018-06-10T04:13:09.470Z,2360.00
2018-06-10T04:14:09.520Z,2388.00
2018-06-10T04:15:09.569Z,2412.00
2018-06-10T04:16:09.659Z,2420.00
2018-06-10T04:17:09.671Z,2440.00
2018-06-10T04:18:09.719Z,2456.00
2018-06-10T04:19:09.771Z,2484.00
2018-06-10T04:20:09.821Z,2516.00
2018-06-10T04:21:09.895Z,2548.00
2018-06-10T04:22:09.925Z,2588.00
2018-06-10T04:23:09.995Z,2640.00
2018-06-10T04:24:10.025Z,2676.00
2018-06-10T04:25:10.076Z,2712.00
2018-06-10T04:26:10.124Z,2748.00
2018-06-10T04:27:10.176Z,2780.00
2018-06-10T04:28:10.247Z,2812.00
2018-06-10T04:29:10.275Z,2852.00
2018-06-10T04:30:10.323Z,2888.00
2018-06-10T04:31:10.374Z,2920.00
2018-06-10T04:32:10.425Z,2956.00
2018-06-10T04:33:10.499Z,2984.00
2018-06-10T04:34:10.525Z,3044.00
2018-06-10T04:35:10.576Z,3072.00
2018-06-10T04:36:10.631Z,3100.00
2018-06-10T04:37:10.678Z,3124.00
2018-06-10T04:38:10.749Z,3156.00
2018-06-10T04:39:10.776Z,3192.00
2018-06-10T04:40:10.827Z,3224.00
2018-06-10T04:41:10.879Z,3252.00
2018-06-10T04:42:10.929Z,3284.00
2018-06-10T04:43:11.003Z,3312.00
2018-06-10T04:44:11.052Z,3344.00
2018-06-10T04:45:11.081Z,3372.00
2018-06-10T04:46:11.130Z,3404.00
2018-06-10T04:47:11.253Z,3432.00
2018-06-10T04:48:11.258Z,3456.00
2018-06-10T04:49:11.306Z,3484.00
2018-06-10T04:50:11.336Z,3516.00
2018-06-10T04:51:11.425Z,3548.00
2018-06-10T04:52:11.434Z,3572.00
2018-06-10T04:53:11.486Z,3608.00
2018-06-10T04:54:11.559Z,3636.00
2018-06-10T04:55:11.584Z,3664.00
2018-06-10T04:56:11.642Z,3692.00
2018-06-10T04:57:11.685Z,3724.00
2018-06-10T04:58:11.736Z,3752.00
2018-06-10T04:59:11.811Z,3788.00
2018-06-10T05:00:11.836Z,3820.00
2018-06-10T05:01:11.892Z,3848.00
2018-06-10T05:02:11.941Z,3864.00
2018-06-10T05:03:11.988Z,3888.00
2018-06-10T05:04:12.062Z,3916.00
2018-06-10T05:05:12.115Z,3948.00
2018-06-10T05:06:12.141Z,3988.00
2018-06-10T05:07:12.196Z,4024.00
2018-06-10T05:08:12.241Z,4056.00
2018-06-10T05:09:12.295Z,4080.00
2018-06-10T05:10:12.365Z,4112.00
2018-06-10T05:11:12.392Z,4148.00
2018-06-10T05:12:12.442Z,4176.00
2018-06-10T05:13:12.500Z,4204.00
2018-06-10T05:14:12.565Z,4224.00
2018-06-10T05:15:12.595Z,4244.00
2018-06-10T05:16:12.669Z,4260.00
2018-06-10T05:17:12.695Z,4276.00
2018-06-10T05:18:12.748Z,4308.00
2018-06-10T05:19:12.798Z,4348.00
2018-06-10T05:20:12.916Z,4396.00
2018-06-10T05:21:12.926Z,4440.00
2018-06-10T05:22:12.947Z,4480.00
2018-06-10T05:23:13.001Z,4512.00
2018-06-10T05:24:13.049Z,4532.00
2018-06-10T05:25:13.127Z,4548.00
2018-06-10T05:26:13.175Z,4564.00
2018-06-10T05:27:13.203Z,4596.00
2018-06-10T05:28:13.252Z,4628.00
2018-06-10T05:29:13.303Z,4652.00
2018-06-10T05:30:13.352Z,4668.00
2018-06-10T05:31:13.428Z,4684.00
2018-06-10T05:32:13.455Z,4696.00
2018-06-10T05:33:13.507Z,4712.00
2018-06-10T05:34:13.556Z,4732.00
2018-06-10T05:35:13.615Z,4752.00
2018-06-10T05:36:13.682Z,4764.00
2018-06-10T05:37:13.735Z,4780.00
2018-06-10T05:38:13.760Z,4800.00
2018-06-10T05:39:13.811Z,4828.00
2018-06-10T05:40:13.903Z,4852.00
2018-06-10T05:41:13.935Z,4884.00
2018-06-10T05:42:13.963Z,4908.00
2018-06-10T05:43:14.016Z,4936.00
2018-06-10T05:44:14.066Z,4960.00
2018-06-10T05:45:14.117Z,4996.00
2018-06-10T05:46:14.188Z,5024.00
2018-06-10T05:47:14.217Z,5044.00
2018-06-10T05:48:14.293Z,5060.00
2018-06-10T05:49:14.323Z,5084.00
2018-06-10T05:50:14.368Z,5108.00
2018-06-10T05:51:14.420Z,5132.00
2018-06-10T05:52:14.472Z,5160.00
2018-06-10T05:53:14.543Z,5192.00
2018-06-10T05:54:14.572Z,5228.00
2018-06-10T05:55:14.622Z,5272.00
2018-06-10T05:56:14.676Z,5324.00
2018-06-10T05:57:14.725Z,5364.00
2018-06-10T05:58:14.798Z,5400.00
2018-06-10T05:59:14.825Z,5436.00
2018-06-10T06:00:14.876Z,5484.00
2018-06-10T06:01:14.930Z,5532.00
2018-06-10T06:02:15.001Z,5588.00
2018-06-10T06:03:15.052Z,5632.00
2018-06-10T06:04:15.082Z,5668.00
2018-06-10T06:05:15.133Z,5704.00
2018-06-10T06:06:15.237Z,5752.00
2018-06-10T06:07:15.272Z,5804.00
2018-06-10T06:08:15.284Z,5856.00
2018-06-10T06:09:15.362Z,5896.00
2018-06-10T06:10:15.385Z,5924.00
2018-06-10T06:11:15.437Z,5940.00
2018-06-10T06:12:15.519Z,5952.00
2018-06-10T06:13:15.575Z,5944.00
2018-06-10T06:14:15.590Z,5944.00
2018-06-10T06:15:15.641Z,5956.00
2018-06-10T06:16:15.698Z,5964.00
2018-06-10T06:17:15.775Z,5984.00
2018-06-10T06:18:15.793Z,6000.00
2018-06-10T06:19:15.845Z,6016.00
2018-06-10T06:20:15.899Z,6052.00
2018-06-10T06:21:15.948Z,6088.00
2018-06-10T06:22:16.041Z,6140.00
2018-06-10T06:23:16.049Z,6180.00
2018-06-10T06:24:16.103Z,6216.00
2018-06-10T06:25:16.154Z,6308.00
2018-06-10T06:26:16.202Z,6340.00
2018-06-10T06:27:16.313Z,6376.00
2018-06-10T06:28:16.307Z,6416.00
2018-06-10T06:29:17.279Z,6456.00
2018-06-10T06:30:16.411Z,6484.00
2018-06-10T06:31:16.461Z,6512.00
2018-06-10T06:32:16.511Z,6548.00
2018-06-10T06:33:16.622Z,6572.00
2018-06-10T06:34:16.612Z,6604.00
2018-06-10T06:35:16.688Z,6668.00
2018-06-10T06:36:16.716Z,6856.00
2018-06-10T06:37:16.767Z,6972.00
2018-06-10T06:38:16.857Z,6996.00
2018-06-10T06:39:16.919Z,7008.00
2018-06-10T06:40:16.921Z,7020.00
2018-06-10T06:41:16.974Z,7020.00
2018-06-10T06:42:17.023Z,7012.00
2018-06-10T06:43:17.097Z,7024.00
2018-06-10T06:44:17.129Z,7056.00
2018-06-10T06:45:17.203Z,7096.00
2018-06-10T06:46:17.228Z,7144.00
2018-06-10T06:47:17.290Z,7180.00
2018-06-10T06:48:17.333Z,7208.00
2018-06-10T06:49:17.393Z,7228.00
2018-06-10T06:50:17.466Z,7244.00
2018-06-10T06:51:17.493Z,7276.00
2018-06-10T06:52:17.540Z,7328.00
2018-06-10T06:53:17.593Z,7416.00
2018-06-10T06:54:17.643Z,7492.00
2018-06-10T06:55:17.719Z,7564.00
2018-06-10T06:56:17.748Z,7612.00
2018-06-10T06:57:17.801Z,7652.00
2018-06-10T06:58:18.790Z,7688.00
2018-06-10T06:59:17.904Z,7740.00
2018-06-10T07:00:17.980Z,7776.00
2018-06-10T07:01:18.011Z,7820.00
2018-06-10T07:02:18.065Z,7848.00
2018-06-10T07:03:18.115Z,7896.00
2018-06-10T07:04:18.211Z,7924.00
2018-06-10T07:05:18.247Z,7952.00
2018-06-10T07:06:18.299Z,7992.00
2018-06-10T07:07:18.331Z,8048.00
2018-06-10T07:08:18.380Z,8168.00
2018-06-10T07:09:18.433Z,8280.00
2018-06-10T07:10:18.486Z,8420.00
2018-06-10T07:11:18.580Z,8588.00
2018-06-10T07:12:18.595Z,8856.00
2018-06-10T07:13:18.650Z,9272.00
2018-06-10T07:14:18.701Z,10324.00
2018-06-10T07:15:18.755Z,16376.00
2018-06-10T07:16:18.839Z,43456.00
2018-06-10T07:17:18.899Z,68992.00
2018-06-10T07:18:18.918Z,81088.00
2018-06-10T07:19:18.967Z,82816.00
2018-06-10T07:20:19.029Z,74816.00
2018-06-10T07:21:19.106Z,77472.00
2018-06-10T07:22:19.134Z,86432.00
2018-06-10T07:23:19.184Z,86592.00
2018-06-10T07:24:19.242Z,76704.00
2018-06-10T07:25:19.293Z,66432.00
2018-06-10T07:26:19.385Z,68544.00
2018-06-10T07:27:19.402Z,80480.00
2018-06-10T07:28:19.460Z,88448.00
2018-06-10T07:29:19.511Z,83264.00
2018-06-10T07:30:19.562Z,72288.00
2018-06-10T07:31:19.650Z,59552.00
2018-06-10T07:32:19.678Z,63040.00
2018-06-10T07:33:19.753Z,68672.00
2018-06-10T07:34:19.787Z,81248.00
2018-06-10T07:35:19.837Z,79712.00
2018-06-10T07:36:19.889Z,59552.00
2018-06-10T07:37:19.944Z,39904.00
2018-06-10T07:38:20.038Z,32320.00
2018-06-10T07:39:20.061Z,39584.00
2018-06-10T07:40:20.110Z,55552.00
2018-06-10T07:41:20.164Z,72864.00
2018-06-10T07:42:20.217Z,89760.00
2018-06-10T07:43:20.312Z,92352.00
2018-06-10T07:44:20.338Z,86336.00
2018-06-10T07:45:20.391Z,78720.00
2018-06-10T07:46:20.436Z,74720.00
2018-06-10T07:47:20.495Z,75264.00
2018-06-10T07:48:20.613Z,78688.00
2018-06-10T07:49:20.603Z,83328.00
2018-06-10T07:50:20.658Z,82752.00
2018-06-10T07:51:20.718Z,78432.00
2018-06-10T07:52:20.770Z,72096.00
2018-06-10T07:53:20.855Z,70368.00
2018-06-10T07:54:20.878Z,72896.00
2018-06-10T07:55:20.935Z,73952.00
2018-06-10T07:56:20.989Z,70176.00
2018-06-10T07:57:21.045Z,58208.00
2018-06-10T07:58:21.125Z,49152.00
2018-06-10T07:59:21.181Z,45504.00
2018-06-10T08:00:21.210Z,50272.00
2018-06-10T08:01:21.266Z,60160.00
2018-06-10T08:02:21.319Z,68000.00
2018-06-10T08:03:21.402Z,76032.00
2018-06-10T08:04:21.456Z,89984.00
2018-06-10T08:05:21.541Z,98592.00
2018-06-10T08:06:21.540Z,104032.00
2018-06-10T08:07:22.318Z,106432.00
2018-06-10T08:08:21.653Z,105888.00
2018-06-10T08:09:21.744Z,100480.00
2018-06-10T08:10:21.763Z,85056.00
2018-06-10T08:11:21.818Z,71840.00
2018-06-10T08:12:21.877Z,67744.00
2018-06-10T08:13:21.931Z,72992.00
2018-06-10T08:14:22.009Z,84480.00
2018-06-10T08:15:22.038Z,90048.00
2018-06-10T08:16:22.095Z,90976.00
2018-06-10T08:17:22.154Z,89888.00
2018-06-10T08:18:22.205Z,91200.00
2018-06-10T08:19:22.287Z,93600.00
2018-06-10T08:20:22.319Z,90976.00
2018-06-10T08:21:22.369Z,88416.00
2018-06-10T08:22:22.430Z,85984.00
2018-06-10T08:23:22.482Z,85376.00
2018-06-10T08:24:22.561Z,89952.00
2018-06-10T08:25:22.590Z,94400.00
2018-06-10T08:26:22.656Z,94144.00
2018-06-10T08:27:22.704Z,92064.00
2018-06-10T08:28:22.758Z,91392.00
2018-06-10T08:29:22.851Z,93056.00
2018-06-10T08:30:22.866Z,80416.00
2018-06-10T08:31:22.925Z,102080.00
2018-06-10T08:32:22.979Z,107200.00
2018-06-10T08:33:23.036Z,110016.00
2018-06-10T08:34:23.121Z,105984.00
2018-06-10T08:35:23.144Z,103808.00
2018-06-10T08:36:23.202Z,101440.00
2018-06-10T08:37:23.295Z,100672.00
2018-06-10T08:38:23.316Z,105440.00
2018-06-10T08:39:23.393Z,110400.00
2018-06-10T08:40:23.422Z,109696.00
2018-06-10T08:41:23.519Z,96256.00
2018-06-10T08:42:23.534Z,78112.00
2018-06-10T08:43:23.591Z,67200.00
2018-06-10T08:44:23.648Z,69248.00
2018-06-10T08:45:23.704Z,76480.00
2018-06-10T08:46:23.790Z,85056.00
2018-06-10T08:47:23.815Z,95648.00
2018-06-10T08:48:23.879Z,104288.00
2018-06-10T08:49:23.928Z,105696.00
2018-06-10T08:50:24.012Z,101440.00
2018-06-10T08:51:24.040Z,98176.00
2018-06-10T08:52:24.096Z,97984.00
2018-06-10T08:53:24.155Z,105888.00
2018-06-10T08:54:24.208Z,109824.00
2018-06-10T08:55:24.288Z,106368.00
2018-06-10T08:56:24.321Z,96672.00
2018-06-10T08:57:24.404Z,91744.00
2018-06-10T08:58:24.434Z,92992.00
2018-06-10T08:59:24.488Z,99040.00
2018-06-10T09:00:24.547Z,104768.00
2018-06-10T09:01:24.603Z,106464.00
2018-06-10T09:02:24.679Z,105184.00
2018-06-10T09:03:24.715Z,103712.00
2018-06-10T09:04:24.778Z,104928.00
2018-06-10T09:05:24.824Z,109600.00
2018-06-10T09:06:24.908Z,115136.00
2018-06-10T09:07:24.936Z,115008.00
2018-06-10T09:08:24.992Z,106688.00
2018-06-10T09:09:25.049Z,93760.00
2018-06-10T09:10:25.102Z,87072.00
2018-06-10T09:11:25.183Z,89984.00
2018-06-10T09:12:25.213Z,103008.00
2018-06-10T09:13:25.295Z,114176.00
2018-06-10T09:14:25.327Z,122080.00
2018-06-10T09:15:25.383Z,127200.00
2018-06-10T09:16:25.437Z,126624.00
2018-06-10T09:17:25.495Z,126048.00
2018-06-10T09:18:25.574Z,124672.00
2018-06-10T09:19:25.605Z,124352.00
2018-06-10T09:20:25.663Z,121088.00
2018-06-10T09:21:25.720Z,110624.00
2018-06-10T09:22:25.872Z,97088.00
2018-06-10T09:23:25.861Z,85344.00
2018-06-10T09:24:25.888Z,84736.00
2018-06-10T09:25:25.945Z,93632.00
2018-06-10T09:26:25.998Z,110464.00
2018-06-10T09:27:26.057Z,122592.00
2018-06-10T09:28:26.146Z,123680.00
2018-06-10T09:29:26.169Z,113728.00
2018-06-10T09:30:26.223Z,96000.00
2018-06-10T09:31:26.284Z,87840.00
2018-06-10T09:32:26.340Z,95200.00
2018-06-10T09:33:26.433Z,115424.00
2018-06-10T09:34:26.452Z,132704.00
2018-06-10T09:35:26.543Z,146784.00
2018-06-10T09:36:26.563Z,146112.00
2018-06-10T09:37:26.619Z,145536.00
2018-06-10T09:38:26.717Z,139936.00
2018-06-10T09:39:26.733Z,136352.00
2018-06-10T09:40:26.789Z,132672.00
2018-06-10T09:41:26.855Z,129184.00
2018-06-10T09:42:26.905Z,125184.00
2018-06-10T09:43:26.988Z,120736.00
2018-06-10T09:44:27.018Z,112096.00
2018-06-10T09:45:27.075Z,105952.00
2018-06-10T09:46:27.131Z,103712.00
2018-06-10T09:47:27.187Z,104192.00
2018-06-10T09:48:27.273Z,109408.00
2018-06-10T09:49:27.334Z,114080.00
2018-06-10T09:50:27.359Z,125504.00
2018-06-10T09:51:27.417Z,131392.00
2018-06-10T09:52:27.476Z,131264.00
2018-06-10T09:53:27.543Z,130144.00
2018-06-10T09:54:27.620Z,123360.00
2018-06-10T09:55:28.458Z,113568.00
2018-06-10T09:56:27.709Z,101440.00
2018-06-10T09:57:27.765Z,93792.00
2018-06-10T09:58:27.823Z,88224.00
2018-06-10T09:59:27.914Z,88704.00
2018-06-10T10:00:27.941Z,90624.00
2018-06-10T10:01:27.998Z,97792.00
2018-06-10T10:02:28.057Z,105152.00
2018-06-10T10:03:28.115Z,112320.00
2018-06-10T10:04:28.201Z,118336.00
2018-06-10T10:05:28.261Z,124128.00
2018-06-10T10:06:28.302Z,130176.00
2018-06-10T10:07:28.348Z,135328.00
2018-06-10T10:08:28.408Z,141664.00
2018-06-10T10:09:28.466Z,147008.00
2018-06-10T10:10:28.559Z,149376.00
2018-06-10T10:11:28.581Z,150464.00
2018-06-10T10:12:28.642Z,146080.00
2018-06-10T10:13:28.696Z,133856.00
2018-06-10T10:14:28.825Z,120992.00
2018-06-10T10:15:28.840Z,105536.00
2018-06-10T10:16:28.880Z,92608.00
2018-06-10T10:17:28.928Z,90624.00
2018-06-10T10:18:28.984Z,91808.00
2018-06-10T10:19:29.043Z,97216.00
2018-06-10T10:20:29.564Z,106848.00
2018-06-10T10:21:29.159Z,113728.00
2018-06-10T10:22:29.211Z,120864.00
2018-06-10T10:23:29.268Z,126976.00
2018-06-10T10:24:29.330Z,132096.00
2018-06-10T10:25:29.440Z,136544.00
2018-06-10T10:26:29.466Z,137120.00
2018-06-10T10:27:29.498Z,134144.00
2018-06-10T10:28:29.558Z,130560.00
2018-06-10T10:29:29.616Z,125536.00
2018-06-10T10:30:29.671Z,125792.00
2018-06-10T10:31:29.760Z,95328.00
2018-06-10T10:32:29.784Z,138880.00
2018-06-10T10:33:29.840Z,145280.00
2018-06-10T10:34:29.899Z,149856.00
2018-06-10T10:35:29.955Z,150048.00
2018-06-10T10:36:30.034Z,147008.00
2018-06-10T10:37:30.071Z,141632.00
2018-06-10T10:38:30.157Z,136704.00
2018-06-10T10:39:30.185Z,128960.00
2018-06-10T10:40:30.241Z,121440.00
2018-06-10T10:41:30.323Z,115072.00
2018-06-10T10:42:30.377Z,111456.00
2018-06-10T10:43:30.414Z,108640.00
2018-06-10T10:44:30.468Z,108928.00
2018-06-10T10:45:30.528Z,109440.00
2018-06-10T10:46:30.582Z,110368.00
2018-06-10T10:47:30.665Z,115520.00
2018-06-10T10:48:30.696Z,124064.00
2018-06-10T10:49:30.757Z,133408.00
2018-06-10T10:50:30.822Z,141664.00
2018-06-10T10:51:30.873Z,145632.00
2018-06-10T10:52:30.972Z,140000.00
2018-06-10T10:53:30.989Z,130880.00
2018-06-10T10:54:31.047Z,123040.00
2018-06-10T10:55:31.103Z,110816.00
2018-06-10T10:56:31.161Z,105856.00
2018-06-10T10:57:31.252Z,107648.00
2018-06-10T10:58:31.277Z,113824.00
2018-06-10T10:59:31.336Z,122848.00
2018-06-10T11:00:31.396Z,133888.00
2018-06-10T11:01:31.455Z,141408.00
2018-06-10T11:02:31.537Z,140480.00
2018-06-10T11:03:31.609Z,142176.00
2018-06-10T11:04:31.630Z,139200.00
2018-06-10T11:05:31.691Z,136128.00
2018-06-10T11:06:31.749Z,136832.00
2018-06-10T11:07:31.803Z,136192.00
2018-06-10T11:08:31.887Z,134752.00
2018-06-10T11:09:31.921Z,128704.00
2018-06-10T11:10:31.978Z,117920.00
2018-06-10T11:11:32.039Z,115040.00
2018-06-10T11:12:32.096Z,115808.00
2018-06-10T11:13:32.188Z,120832.00
2018-06-10T11:14:32.214Z,125408.00
2018-06-10T11:15:32.274Z,133376.00
2018-06-10T11:16:32.331Z,138400.00
2018-06-10T11:17:32.389Z,144384.00
2018-06-10T11:18:32.467Z,148864.00
2018-06-10T11:19:32.519Z,144160.00
2018-06-10T11:20:32.564Z,136416.00
2018-06-10T11:21:32.620Z,126304.00
2018-06-10T11:22:32.685Z,118880.00
2018-06-10T11:23:32.758Z,112192.00
2018-06-10T11:24:32.821Z,107712.00
2018-06-10T11:25:32.852Z,105312.00
2018-06-10T11:26:32.911Z,106720.00
2018-06-10T11:27:32.969Z,109984.00
2018-06-10T11:28:33.052Z,111872.00
2018-06-10T11:29:33.117Z,115520.00
2018-06-10T11:30:33.143Z,119456.00
2018-06-10T11:31:33.204Z,122400.00
2018-06-10T11:32:33.264Z,124352.00
2018-06-10T11:33:33.324Z,123488.00
2018-06-10T11:34:33.438Z,120832.00
2018-06-10T11:35:33.461Z,118016.00
2018-06-10T11:36:33.494Z,113568.00
2018-06-10T11:37:33.554Z,113920.00
2018-06-10T11:38:33.610Z,117728.00
2018-06-10T11:39:33.671Z,123840.00
2018-06-10T11:40:33.751Z,128992.00
2018-06-10T11:41:33.789Z,131712.00
2018-06-10T11:42:33.915Z,130624.00
2018-06-10T11:43:33.903Z,127680.00
2018-06-10T11:44:33.964Z,123744.00
2018-06-10T11:45:34.046Z,122016.00
2018-06-10T11:46:34.078Z,120000.00
2018-06-10T11:47:34.139Z,118176.00
2018-06-10T11:48:34.198Z,116320.00
2018-06-10T11:49:34.255Z,116992.00
2018-06-10T11:50:34.343Z,117792.00
2018-06-10T11:51:34.371Z,117984.00
2018-06-10T11:52:34.429Z,116448.00
2018-06-10T11:53:34.490Z,103808.00
2018-06-10T11:54:34.546Z,99136.00
2018-06-10T11:55:34.643Z,97024.00
2018-06-10T11:56:34.674Z,90720.00
2018-06-10T11:57:34.724Z,87872.00
2018-06-10T11:58:34.781Z,93440.00
2018-06-10T11:59:34.838Z,99136.00
2018-06-10T12:00:34.925Z,108320.00
2018-06-10T12:01:34.956Z,115232.00
2018-06-10T12:02:35.013Z,125248.00
2018-06-10T12:03:35.072Z,137600.00
2018-06-10T12:04:35.132Z,137664.00
2018-06-10T12:05:35.224Z,134656.00
2018-06-10T12:06:35.257Z,113344.00
2018-06-10T12:07:35.311Z,85504.00
2018-06-10T12:08:35.369Z,84064.00
2018-06-10T12:09:35.432Z,100224.00
2018-06-10T12:10:35.544Z,102688.00